sensor_id;sensor_type;location;lat;lon;timestamp;temperature;humidity
65408;DHT22;52017;51.230;-2.322;2022-12-10T00:01:10;-0.50;78.30
65408;DHT22;52017;51.230;-2.322;2022-12-10T00:04:52;-0.50;78.40
65408;DHT22;52017;51.230;-2.322;2022-12-10T00:08:36;-0.50;78.30
65408;DHT22;52017;51.230;-2.322;2022-12-10T00:12:18;-0.60;78.30
65408;DHT22;52017;51.230;-2.322;2022-12-10T00:16:02;-0.60;78.30
65408;DHT22;52017;51.230;-2.322;2022-12-10T00:19:45;-0.60;78.30
65408;DHT22;52017;51.230;-2.322;2022-12-10T00:23:27;-0.60;78.30
65408;DHT22;52017;51.230;-2.322;2022-12-10T00:27:10;-0.60;78.40
65408;DHT22;52017;51.230;-2.322;2022-12-10T00:30:52;-0.60;78.40
65408;DHT22;52017;51.230;-2.322;2022-12-10T00:34:34;-0.60;78.50
65408;DHT22;52017;51.230;-2.322;2022-12-10T00:38:16;-0.60;78.50
65408;DHT22;52017;51.230;-2.322;2022-12-10T00:41:58;-0.60;78.70
65408;DHT22;52017;51.230;-2.322;2022-12-10T00:45:40;-0.60;78.90
65408;DHT22;52017;51.230;-2.322;2022-12-10T00:49:22;-0.50;78.90
65408;DHT22;52017;51.230;-2.322;2022-12-10T00:53:06;-0.50;79.00
65408;DHT22;52017;51.230;-2.322;2022-12-10T00:56:49;-0.50;79.00
65408;DHT22;52017;51.230;-2.322;2022-12-10T01:00:31;-0.50;79.00
65408;DHT22;52017;51.230;-2.322;2022-12-10T01:04:16;-0.50;79.10
65408;DHT22;52017;51.230;-2.322;2022-12-10T01:07:59;-0.50;79.10
65408;DHT22;52017;51.230;-2.322;2022-12-10T01:11:42;-0.50;79.10
65408;DHT22;52017;51.230;-2.322;2022-12-10T01:15:24;-0.50;79.20
65408;DHT22;52017;51.230;-2.322;2022-12-10T01:19:07;-0.50;79.20
65408;DHT22;52017;51.230;-2.322;2022-12-10T01:22:49;-0.50;79.20
65408;DHT22;52017;51.230;-2.322;2022-12-10T01:26:33;-0.50;79.40
65408;DHT22;52017;51.230;-2.322;2022-12-10T01:30:15;-0.50;79.40
65408;DHT22;52017;51.230;-2.322;2022-12-10T01:34:00;-0.50;79.40
65408;DHT22;52017;51.230;-2.322;2022-12-10T01:37:43;-0.50;79.40
65408;DHT22;52017;51.230;-2.322;2022-12-10T01:45:12;-0.50;79.30
65408;DHT22;52017;51.230;-2.322;2022-12-10T01:48:55;-0.50;79.30
65408;DHT22;52017;51.230;-2.322;2022-12-10T01:52:38;-0.50;79.40
65408;DHT22;52017;51.230;-2.322;2022-12-10T01:56:21;-0.60;79.30
65408;DHT22;52017;51.230;-2.322;2022-12-10T02:00:05;-0.60;79.30
65408;DHT22;52017;51.230;-2.322;2022-12-10T02:12:05;-0.70;79.60
65408;DHT22;52017;51.230;-2.322;2022-12-10T02:23:38;-0.70;79.10
65408;DHT22;52017;51.230;-2.322;2022-12-10T02:31:05;-0.70;79.40
65408;DHT22;52017;51.230;-2.322;2022-12-10T02:34:52;-0.70;79.60
65408;DHT22;52017;51.230;-2.322;2022-12-10T02:38:36;-0.60;79.80
65408;DHT22;52017;51.230;-2.322;2022-12-10T02:42:21;-0.60;79.90
65408;DHT22;52017;51.230;-2.322;2022-12-10T02:46:05;-0.50;80.00
65408;DHT22;52017;51.230;-2.322;2022-12-10T02:49:51;-0.50;80.00
65408;DHT22;52017;51.230;-2.322;2022-12-10T02:53:44;-0.50;79.90
65408;DHT22;52017;51.230;-2.322;2022-12-10T03:01:21;-0.50;80.00
65408;DHT22;52017;51.230;-2.322;2022-12-10T03:05:19;-0.50;80.10
65408;DHT22;52017;51.230;-2.322;2022-12-10T03:09:05;-0.60;80.10
65408;DHT22;52017;51.230;-2.322;2022-12-10T03:12:52;-0.60;80.00
65408;DHT22;52017;51.230;-2.322;2022-12-10T03:16:40;-0.60;79.90
65408;DHT22;52017;51.230;-2.322;2022-12-10T03:20:27;-0.60;80.00
65408;DHT22;52017;51.230;-2.322;2022-12-10T03:24:10;-0.60;80.10
65408;DHT22;52017;51.230;-2.322;2022-12-10T03:27:55;-0.60;80.20
65408;DHT22;52017;51.230;-2.322;2022-12-10T03:31:39;-0.50;80.30
65408;DHT22;52017;51.230;-2.322;2022-12-10T03:35:24;-0.50;80.20
65408;DHT22;52017;51.230;-2.322;2022-12-10T03:39:06;-0.50;80.20
65408;DHT22;52017;51.230;-2.322;2022-12-10T03:42:49;-0.50;80.30
65408;DHT22;52017;51.230;-2.322;2022-12-10T03:46:31;-0.40;80.50
65408;DHT22;52017;51.230;-2.322;2022-12-10T03:50:13;-0.40;80.50
65408;DHT22;52017;51.230;-2.322;2022-12-10T03:53:58;-0.40;80.60
65408;DHT22;52017;51.230;-2.322;2022-12-10T03:57:40;-0.40;80.70
65408;DHT22;52017;51.230;-2.322;2022-12-10T04:01:31;-0.40;80.80
65408;DHT22;52017;51.230;-2.322;2022-12-10T04:05:14;-0.40;80.90
65408;DHT22;52017;51.230;-2.322;2022-12-10T04:08:56;-0.30;80.90
65408;DHT22;52017;51.230;-2.322;2022-12-10T04:12:39;-0.30;81.00
65408;DHT22;52017;51.230;-2.322;2022-12-10T04:16:24;-0.30;81.00
65408;DHT22;52017;51.230;-2.322;2022-12-10T04:20:10;-0.20;81.00
65408;DHT22;52017;51.230;-2.322;2022-12-10T04:24:12;-0.20;81.10
65408;DHT22;52017;51.230;-2.322;2022-12-10T04:28:15;-0.10;81.10
65408;DHT22;52017;51.230;-2.322;2022-12-10T04:31:57;-0.10;81.20
65408;DHT22;52017;51.230;-2.322;2022-12-10T04:35:39;0.00;81.20
65408;DHT22;52017;51.230;-2.322;2022-12-10T04:39:21;0.00;81.20
65408;DHT22;52017;51.230;-2.322;2022-12-10T04:43:03;0.00;81.10
65408;DHT22;52017;51.230;-2.322;2022-12-10T04:46:45;0.00;81.20
65408;DHT22;52017;51.230;-2.322;2022-12-10T04:50:27;0.00;81.20
65408;DHT22;52017;51.230;-2.322;2022-12-10T04:54:10;0.00;81.20
65408;DHT22;52017;51.230;-2.322;2022-12-10T04:57:52;0.00;81.00
65408;DHT22;52017;51.230;-2.322;2022-12-10T05:01:35;-0.10;81.00
65408;DHT22;52017;51.230;-2.322;2022-12-10T05:05:17;-0.10;81.10
65408;DHT22;52017;51.230;-2.322;2022-12-10T05:09:00;-0.10;81.00
65408;DHT22;52017;51.230;-2.322;2022-12-10T05:12:42;-0.10;81.20
65408;DHT22;52017;51.230;-2.322;2022-12-10T05:16:26;-0.10;81.20
65408;DHT22;52017;51.230;-2.322;2022-12-10T05:20:09;-0.20;81.20
65408;DHT22;52017;51.230;-2.322;2022-12-10T05:23:52;-0.20;81.20
65408;DHT22;52017;51.230;-2.322;2022-12-10T05:27:34;-0.20;81.30
65408;DHT22;52017;51.230;-2.322;2022-12-10T05:31:22;-0.20;81.30
65408;DHT22;52017;51.230;-2.322;2022-12-10T05:35:05;-0.20;81.30
65408;DHT22;52017;51.230;-2.322;2022-12-10T05:38:49;-0.20;81.30
65408;DHT22;52017;51.230;-2.322;2022-12-10T05:42:31;-0.20;81.40
65408;DHT22;52017;51.230;-2.322;2022-12-10T05:46:18;-0.20;81.40
65408;DHT22;52017;51.230;-2.322;2022-12-10T05:50:01;-0.20;81.40
65408;DHT22;52017;51.230;-2.322;2022-12-10T05:53:43;-0.20;81.40
65408;DHT22;52017;51.230;-2.322;2022-12-10T05:57:25;-0.30;81.40
65408;DHT22;52017;51.230;-2.322;2022-12-10T06:01:15;-0.40;81.40
65408;DHT22;52017;51.230;-2.322;2022-12-10T06:04:58;-0.40;81.30
65408;DHT22;52017;51.230;-2.322;2022-12-10T06:08:40;-0.40;81.40
65408;DHT22;52017;51.230;-2.322;2022-12-10T06:12:22;-0.40;81.40
65408;DHT22;52017;51.230;-2.322;2022-12-10T06:16:10;-0.40;81.40
65408;DHT22;52017;51.230;-2.322;2022-12-10T06:19:52;-0.40;81.40
65408;DHT22;52017;51.230;-2.322;2022-12-10T06:23:35;-0.40;81.60
65408;DHT22;52017;51.230;-2.322;2022-12-10T06:27:17;-0.40;81.80
65408;DHT22;52017;51.230;-2.322;2022-12-10T06:31:00;-0.40;81.90
65408;DHT22;52017;51.230;-2.322;2022-12-10T06:34:42;-0.40;81.90
65408;DHT22;52017;51.230;-2.322;2022-12-10T06:38:24;-0.40;81.80
65408;DHT22;52017;51.230;-2.322;2022-12-10T06:42:06;-0.40;81.90
65408;DHT22;52017;51.230;-2.322;2022-12-10T06:45:48;-0.30;81.90
65408;DHT22;52017;51.230;-2.322;2022-12-10T06:49:30;-0.30;81.90
65408;DHT22;52017;51.230;-2.322;2022-12-10T06:53:12;-0.30;81.90
65408;DHT22;52017;51.230;-2.322;2022-12-10T06:56:54;-0.30;81.90
65408;DHT22;52017;51.230;-2.322;2022-12-10T07:00:36;-0.40;81.90
65408;DHT22;52017;51.230;-2.322;2022-12-10T07:04:18;-0.40;82.00
65408;DHT22;52017;51.230;-2.322;2022-12-10T07:08:00;-0.40;82.00
65408;DHT22;52017;51.230;-2.322;2022-12-10T07:11:42;-0.30;82.00
65408;DHT22;52017;51.230;-2.322;2022-12-10T07:15:25;-0.30;82.10
65408;DHT22;52017;51.230;-2.322;2022-12-10T07:19:11;-0.30;82.10
65408;DHT22;52017;51.230;-2.322;2022-12-10T07:22:53;-0.30;82.10
65408;DHT22;52017;51.230;-2.322;2022-12-10T07:26:37;-0.30;82.20
65408;DHT22;52017;51.230;-2.322;2022-12-10T07:30:19;-0.20;82.20
65408;DHT22;52017;51.230;-2.322;2022-12-10T07:34:02;-0.20;82.20
65408;DHT22;52017;51.230;-2.322;2022-12-10T07:37:45;-0.20;82.20
65408;DHT22;52017;51.230;-2.322;2022-12-10T07:41:27;-0.20;82.20
65408;DHT22;52017;51.230;-2.322;2022-12-10T07:45:09;-0.20;82.20
65408;DHT22;52017;51.230;-2.322;2022-12-10T07:48:52;-0.20;82.20
65408;DHT22;52017;51.230;-2.322;2022-12-10T07:52:34;-0.20;82.30
65408;DHT22;52017;51.230;-2.322;2022-12-10T07:56:16;-0.20;82.30
65408;DHT22;52017;51.230;-2.322;2022-12-10T07:59:57;-0.10;82.40
65408;DHT22;52017;51.230;-2.322;2022-12-10T08:03:40;-0.10;82.40
65408;DHT22;52017;51.230;-2.322;2022-12-10T08:07:22;-0.10;82.50
65408;DHT22;52017;51.230;-2.322;2022-12-10T08:11:05;0.00;82.50
65408;DHT22;52017;51.230;-2.322;2022-12-10T08:14:47;0.00;82.50
65408;DHT22;52017;51.230;-2.322;2022-12-10T08:18:30;0.00;82.50
65408;DHT22;52017;51.230;-2.322;2022-12-10T08:22:12;0.00;82.50
65408;DHT22;52017;51.230;-2.322;2022-12-10T08:25:55;0.00;82.50
65408;DHT22;52017;51.230;-2.322;2022-12-10T08:29:37;0.00;82.50
65408;DHT22;52017;51.230;-2.322;2022-12-10T08:33:19;0.00;82.40
65408;DHT22;52017;51.230;-2.322;2022-12-10T08:37:01;0.00;82.40
65408;DHT22;52017;51.230;-2.322;2022-12-10T08:40:43;0.00;82.40
65408;DHT22;52017;51.230;-2.322;2022-12-10T08:44:27;0.00;82.40
65408;DHT22;52017;51.230;-2.322;2022-12-10T08:48:09;0.00;82.40
65408;DHT22;52017;51.230;-2.322;2022-12-10T08:51:51;0.00;82.40
65408;DHT22;52017;51.230;-2.322;2022-12-10T08:55:33;0.00;82.30
65408;DHT22;52017;51.230;-2.322;2022-12-10T08:59:20;0.10;82.30
65408;DHT22;52017;51.230;-2.322;2022-12-10T09:03:04;0.10;82.40
65408;DHT22;52017;51.230;-2.322;2022-12-10T09:06:46;0.10;82.50
65408;DHT22;52017;51.230;-2.322;2022-12-10T09:10:28;0.40;83.20
65408;DHT22;52017;51.230;-2.322;2022-12-10T09:14:10;0.90;83.40
65408;DHT22;52017;51.230;-2.322;2022-12-10T09:17:52;1.30;83.00
65408;DHT22;52017;51.230;-2.322;2022-12-10T09:21:35;1.60;82.60
65408;DHT22;52017;51.230;-2.322;2022-12-10T09:25:18;1.80;82.10
65408;DHT22;52017;51.230;-2.322;2022-12-10T09:29:03;1.90;81.60
65408;DHT22;52017;51.230;-2.322;2022-12-10T09:32:45;1.90;81.30
65408;DHT22;52017;51.230;-2.322;2022-12-10T09:36:27;1.70;81.20
65408;DHT22;52017;51.230;-2.322;2022-12-10T09:40:16;1.70;81.10
65408;DHT22;52017;51.230;-2.322;2022-12-10T09:47:48;1.60;81.30
65408;DHT22;52017;51.230;-2.322;2022-12-10T09:51:35;1.60;81.20
65408;DHT22;52017;51.230;-2.322;2022-12-10T09:55:29;1.60;81.20
65408;DHT22;52017;51.230;-2.322;2022-12-10T09:59:23;1.60;81.20
65408;DHT22;52017;51.230;-2.322;2022-12-10T10:03:09;1.50;81.40
65408;DHT22;52017;51.230;-2.322;2022-12-10T10:06:52;1.50;81.40
65408;DHT22;52017;51.230;-2.322;2022-12-10T10:10:37;1.50;81.60
65408;DHT22;52017;51.230;-2.322;2022-12-10T10:14:25;1.50;81.70
65408;DHT22;52017;51.230;-2.322;2022-12-10T10:22:16;1.50;82.40
65408;DHT22;52017;51.230;-2.322;2022-12-10T10:25:59;1.50;81.80
65408;DHT22;52017;51.230;-2.322;2022-12-10T10:29:47;1.50;81.80
65408;DHT22;52017;51.230;-2.322;2022-12-10T10:33:48;1.50;81.90
65408;DHT22;52017;51.230;-2.322;2022-12-10T10:37:41;1.60;82.20
65408;DHT22;52017;51.230;-2.322;2022-12-10T10:41:24;1.70;82.40
65408;DHT22;52017;51.230;-2.322;2022-12-10T10:45:40;1.70;82.40
65408;DHT22;52017;51.230;-2.322;2022-12-10T10:49:25;1.90;83.40
65408;DHT22;52017;51.230;-2.322;2022-12-10T10:57:25;2.30;82.90
65408;DHT22;52017;51.230;-2.322;2022-12-10T11:01:09;2.50;82.70
65408;DHT22;52017;51.230;-2.322;2022-12-10T11:04:53;2.70;82.10
65408;DHT22;52017;51.230;-2.322;2022-12-10T11:08:38;2.80;81.70
65408;DHT22;52017;51.230;-2.322;2022-12-10T11:12:37;2.80;81.70
65408;DHT22;52017;51.230;-2.322;2022-12-10T11:16:22;2.80;82.10
65408;DHT22;52017;51.230;-2.322;2022-12-10T11:20:24;2.70;81.70
65408;DHT22;52017;51.230;-2.322;2022-12-10T11:24:11;2.60;82.10
65408;DHT22;52017;51.230;-2.322;2022-12-10T11:28:11;2.60;81.90
65408;DHT22;52017;51.230;-2.322;2022-12-10T11:56:43;8.90;72.30
65408;DHT22;52017;51.230;-2.322;2022-12-10T12:00:37;9.80;71.70
65408;DHT22;52017;51.230;-2.322;2022-12-10T12:13:02;9.90;69.80
65408;DHT22;52017;51.230;-2.322;2022-12-10T12:20:43;8.60;71.80
65408;DHT22;52017;51.230;-2.322;2022-12-10T12:24:36;8.70;73.30
65408;DHT22;52017;51.230;-2.322;2022-12-10T12:28:37;9.00;71.30
65408;DHT22;52017;51.230;-2.322;2022-12-10T12:32:29;8.70;71.30
65408;DHT22;52017;51.230;-2.322;2022-12-10T12:36:22;8.10;72.30
65408;DHT22;52017;51.230;-2.322;2022-12-10T12:40:33;7.50;72.70
65408;DHT22;52017;51.230;-2.322;2022-12-10T12:44:32;6.90;73.60
65408;DHT22;52017;51.230;-2.322;2022-12-10T12:48:34;6.40;74.80
65408;DHT22;52017;51.230;-2.322;2022-12-10T12:52:43;6.00;75.30
65408;DHT22;52017;51.230;-2.322;2022-12-10T13:00:22;5.50;76.20
65408;DHT22;52017;51.230;-2.322;2022-12-10T13:04:05;5.30;76.40
65408;DHT22;52017;51.230;-2.322;2022-12-10T13:20:39;4.90;77.60
65408;DHT22;52017;51.230;-2.322;2022-12-10T13:24:44;5.20;77.00
65408;DHT22;52017;51.230;-2.322;2022-12-10T13:36:05;7.10;74.10
65408;DHT22;52017;51.230;-2.322;2022-12-10T13:44:48;8.60;70.50
65408;DHT22;52017;51.230;-2.322;2022-12-10T13:48:37;9.30;69.60
65408;DHT22;52017;51.230;-2.322;2022-12-10T13:52:25;9.80;68.40
65408;DHT22;52017;51.230;-2.322;2022-12-10T14:08:02;11.50;63.20
65408;DHT22;52017;51.230;-2.322;2022-12-10T14:11:55;11.90;63.40
65408;DHT22;52017;51.230;-2.322;2022-12-10T14:15:54;12.00;61.80
65408;DHT22;52017;51.230;-2.322;2022-12-10T14:19:38;12.00;60.60
65408;DHT22;52017;51.230;-2.322;2022-12-10T14:23:33;11.90;62.80
65408;DHT22;52017;51.230;-2.322;2022-12-10T14:27:25;11.70;61.00
65408;DHT22;52017;51.230;-2.322;2022-12-10T14:31:18;11.60;62.10
65408;DHT22;52017;51.230;-2.322;2022-12-10T14:35:05;11.60;61.30
65408;DHT22;52017;51.230;-2.322;2022-12-10T14:38:48;11.40;61.50
65408;DHT22;52017;51.230;-2.322;2022-12-10T14:42:32;11.00;62.30
65408;DHT22;52017;51.230;-2.322;2022-12-10T14:46:25;10.50;62.70
65408;DHT22;52017;51.230;-2.322;2022-12-10T14:50:13;10.00;62.80
65408;DHT22;52017;51.230;-2.322;2022-12-10T14:53:56;9.30;64.10
65408;DHT22;52017;51.230;-2.322;2022-12-10T14:57:58;8.50;65.70
65408;DHT22;52017;51.230;-2.322;2022-12-10T15:01:44;7.50;67.40
65408;DHT22;52017;51.230;-2.322;2022-12-10T15:05:32;6.70;69.10
65408;DHT22;52017;51.230;-2.322;2022-12-10T15:09:25;6.10;70.40
65408;DHT22;52017;51.230;-2.322;2022-12-10T15:13:23;5.70;71.60
65408;DHT22;52017;51.230;-2.322;2022-12-10T15:17:36;5.30;72.40
65408;DHT22;52017;51.230;-2.322;2022-12-10T15:21:22;5.00;73.30
65408;DHT22;52017;51.230;-2.322;2022-12-10T15:25:27;4.80;73.30
65408;DHT22;52017;51.230;-2.322;2022-12-10T15:33:33;4.40;74.70
65408;DHT22;52017;51.230;-2.322;2022-12-10T15:37:24;4.20;74.90
65408;DHT22;52017;51.230;-2.322;2022-12-10T15:41:37;4.00;74.90
65408;DHT22;52017;51.230;-2.322;2022-12-10T15:45:40;3.90;75.90
65408;DHT22;52017;51.230;-2.322;2022-12-10T15:49:23;3.80;75.60
65408;DHT22;52017;51.230;-2.322;2022-12-10T15:53:10;3.60;75.50
65408;DHT22;52017;51.230;-2.322;2022-12-10T15:56:55;3.50;75.70
65408;DHT22;52017;51.230;-2.322;2022-12-10T16:00:37;3.40;75.90
65408;DHT22;52017;51.230;-2.322;2022-12-10T16:04:27;3.30;76.10
65408;DHT22;52017;51.230;-2.322;2022-12-10T16:08:19;3.10;76.20
65408;DHT22;52017;51.230;-2.322;2022-12-10T16:12:01;3.00;76.70
65408;DHT22;52017;51.230;-2.322;2022-12-10T16:15:55;2.90;76.80
65408;DHT22;52017;51.230;-2.322;2022-12-10T16:19:39;2.80;77.10
65408;DHT22;52017;51.230;-2.322;2022-12-10T16:23:21;2.70;77.00
65408;DHT22;52017;51.230;-2.322;2022-12-10T16:27:12;2.50;77.10
65408;DHT22;52017;51.230;-2.322;2022-12-10T16:30:58;2.50;77.50
65408;DHT22;52017;51.230;-2.322;2022-12-10T16:34:42;2.40;77.50
65408;DHT22;52017;51.230;-2.322;2022-12-10T16:38:25;2.30;77.60
65408;DHT22;52017;51.230;-2.322;2022-12-10T16:42:10;2.20;77.90
65408;DHT22;52017;51.230;-2.322;2022-12-10T16:45:55;2.20;78.00
65408;DHT22;52017;51.230;-2.322;2022-12-10T16:49:43;2.10;78.20
65408;DHT22;52017;51.230;-2.322;2022-12-10T16:53:28;2.00;78.30
65408;DHT22;52017;51.230;-2.322;2022-12-10T16:57:15;2.00;78.40
65408;DHT22;52017;51.230;-2.322;2022-12-10T17:01:01;1.90;78.50
65408;DHT22;52017;51.230;-2.322;2022-12-10T17:04:44;1.90;78.50
65408;DHT22;52017;51.230;-2.322;2022-12-10T17:08:27;1.80;78.60
65408;DHT22;52017;51.230;-2.322;2022-12-10T17:12:14;1.80;78.80
65408;DHT22;52017;51.230;-2.322;2022-12-10T17:15:57;1.80;79.10
65408;DHT22;52017;51.230;-2.322;2022-12-10T17:19:41;1.70;79.10
65408;DHT22;52017;51.230;-2.322;2022-12-10T17:23:23;1.70;79.20
65408;DHT22;52017;51.230;-2.322;2022-12-10T17:27:10;1.70;79.30
65408;DHT22;52017;51.230;-2.322;2022-12-10T17:30:54;1.60;79.40
65408;DHT22;52017;51.230;-2.322;2022-12-10T17:34:36;1.60;79.50
65408;DHT22;52017;51.230;-2.322;2022-12-10T17:38:24;1.50;79.60
65408;DHT22;52017;51.230;-2.322;2022-12-10T17:42:08;1.50;79.70
65408;DHT22;52017;51.230;-2.322;2022-12-10T17:45:50;1.50;79.70
65408;DHT22;52017;51.230;-2.322;2022-12-10T17:49:32;1.40;79.90
65408;DHT22;52017;51.230;-2.322;2022-12-10T17:53:17;1.40;80.00
65408;DHT22;52017;51.230;-2.322;2022-12-10T17:56:59;1.30;80.00
65408;DHT22;52017;51.230;-2.322;2022-12-10T18:00:42;1.30;80.00
65408;DHT22;52017;51.230;-2.322;2022-12-10T18:04:25;1.30;80.20
65408;DHT22;52017;51.230;-2.322;2022-12-10T18:08:11;1.30;80.30
65408;DHT22;52017;51.230;-2.322;2022-12-10T18:11:53;1.40;80.50
65408;DHT22;52017;51.230;-2.322;2022-12-10T18:15:35;1.40;80.60
65408;DHT22;52017;51.230;-2.322;2022-12-10T18:19:18;1.30;80.70
65408;DHT22;52017;51.230;-2.322;2022-12-10T18:23:01;1.30;80.70
65408;DHT22;52017;51.230;-2.322;2022-12-10T18:26:43;1.30;80.90
65408;DHT22;52017;51.230;-2.322;2022-12-10T18:30:25;1.30;81.00
65408;DHT22;52017;51.230;-2.322;2022-12-10T18:34:10;1.30;81.00
65408;DHT22;52017;51.230;-2.322;2022-12-10T18:37:55;1.20;81.00
65408;DHT22;52017;51.230;-2.322;2022-12-10T18:41:37;1.20;81.10
65408;DHT22;52017;51.230;-2.322;2022-12-10T18:45:20;1.20;81.10
65408;DHT22;52017;51.230;-2.322;2022-12-10T18:49:02;1.20;81.20
65408;DHT22;52017;51.230;-2.322;2022-12-10T18:52:45;1.10;81.30
65408;DHT22;52017;51.230;-2.322;2022-12-10T18:56:29;1.10;81.50
65408;DHT22;52017;51.230;-2.322;2022-12-10T19:00:23;1.10;81.60
65408;DHT22;52017;51.230;-2.322;2022-12-10T19:04:07;1.00;81.80
65408;DHT22;52017;51.230;-2.322;2022-12-10T19:07:49;1.00;81.40
65408;DHT22;52017;51.230;-2.322;2022-12-10T19:11:31;1.00;81.40
65408;DHT22;52017;51.230;-2.322;2022-12-10T19:15:16;0.90;81.40
65408;DHT22;52017;51.230;-2.322;2022-12-10T19:18:59;0.90;81.40
65408;DHT22;52017;51.230;-2.322;2022-12-10T19:22:43;0.80;81.50
65408;DHT22;52017;51.230;-2.322;2022-12-10T19:26:29;0.80;81.50
65408;DHT22;52017;51.230;-2.322;2022-12-10T19:30:18;0.80;81.50
65408;DHT22;52017;51.230;-2.322;2022-12-10T19:34:01;0.70;81.50
65408;DHT22;52017;51.230;-2.322;2022-12-10T19:37:45;0.70;82.10
65408;DHT22;52017;51.230;-2.322;2022-12-10T19:41:27;0.60;81.40
65408;DHT22;52017;51.230;-2.322;2022-12-10T19:45:09;0.50;81.40
65408;DHT22;52017;51.230;-2.322;2022-12-10T19:48:53;0.50;81.50
65408;DHT22;52017;51.230;-2.322;2022-12-10T19:52:34;0.50;81.50
65408;DHT22;52017;51.230;-2.322;2022-12-10T20:00:06;0.40;81.50
65408;DHT22;52017;51.230;-2.322;2022-12-10T20:03:52;0.40;81.50
65408;DHT22;52017;51.230;-2.322;2022-12-10T20:07:35;0.40;81.60
65408;DHT22;52017;51.230;-2.322;2022-12-10T20:11:18;0.30;81.70
65408;DHT22;52017;51.230;-2.322;2022-12-10T20:15:00;0.30;81.70
65408;DHT22;52017;51.230;-2.322;2022-12-10T20:18:43;0.30;81.70
65408;DHT22;52017;51.230;-2.322;2022-12-10T20:22:26;0.20;81.70
65408;DHT22;52017;51.230;-2.322;2022-12-10T20:26:32;0.20;81.80
65408;DHT22;52017;51.230;-2.322;2022-12-10T20:30:24;0.20;82.20
65408;DHT22;52017;51.230;-2.322;2022-12-10T20:34:09;0.10;81.70
65408;DHT22;52017;51.230;-2.322;2022-12-10T20:37:52;0.10;81.70
65408;DHT22;52017;51.230;-2.322;2022-12-10T20:41:34;0.10;81.70
65408;DHT22;52017;51.230;-2.322;2022-12-10T20:45:16;0.10;81.80
65408;DHT22;52017;51.230;-2.322;2022-12-10T20:49:00;0.00;81.80
65408;DHT22;52017;51.230;-2.322;2022-12-10T20:52:42;0.00;81.80
65408;DHT22;52017;51.230;-2.322;2022-12-10T20:56:24;0.00;81.80
65408;DHT22;52017;51.230;-2.322;2022-12-10T21:00:11;0.00;81.90
65408;DHT22;52017;51.230;-2.322;2022-12-10T21:03:59;0.00;81.80
65408;DHT22;52017;51.230;-2.322;2022-12-10T21:07:41;0.00;81.80
65408;DHT22;52017;51.230;-2.322;2022-12-10T21:11:24;0.00;81.80
65408;DHT22;52017;51.230;-2.322;2022-12-10T21:15:06;0.00;81.90
65408;DHT22;52017;51.230;-2.322;2022-12-10T21:19:00;0.00;82.00
65408;DHT22;52017;51.230;-2.322;2022-12-10T21:22:42;0.00;82.00
65408;DHT22;52017;51.230;-2.322;2022-12-10T21:26:25;0.00;82.00
65408;DHT22;52017;51.230;-2.322;2022-12-10T21:30:11;0.00;81.90
65408;DHT22;52017;51.230;-2.322;2022-12-10T21:33:54;0.00;81.90
65408;DHT22;52017;51.230;-2.322;2022-12-10T21:37:36;-0.10;81.90
65408;DHT22;52017;51.230;-2.322;2022-12-10T21:41:26;-0.10;81.90
65408;DHT22;52017;51.230;-2.322;2022-12-10T21:45:29;-0.10;81.80
65408;DHT22;52017;51.230;-2.322;2022-12-10T21:49:11;-0.10;81.90
65408;DHT22;52017;51.230;-2.322;2022-12-10T21:52:56;-0.10;81.90
65408;DHT22;52017;51.230;-2.322;2022-12-10T21:56:39;-0.10;82.00
65408;DHT22;52017;51.230;-2.322;2022-12-10T22:00:21;-0.10;81.90
65408;DHT22;52017;51.230;-2.322;2022-12-10T22:04:03;-0.10;81.90
65408;DHT22;52017;51.230;-2.322;2022-12-10T22:07:45;0.00;81.90
65408;DHT22;52017;51.230;-2.322;2022-12-10T22:11:27;0.00;81.90
65408;DHT22;52017;51.230;-2.322;2022-12-10T22:15:11;-0.10;81.90
65408;DHT22;52017;51.230;-2.322;2022-12-10T22:18:55;0.00;81.90
65408;DHT22;52017;51.230;-2.322;2022-12-10T22:22:37;0.00;81.70
65408;DHT22;52017;51.230;-2.322;2022-12-10T22:26:21;-0.10;81.70
65408;DHT22;52017;51.230;-2.322;2022-12-10T22:30:04;-0.10;81.70
65408;DHT22;52017;51.230;-2.322;2022-12-10T22:33:47;-0.20;81.70
65408;DHT22;52017;51.230;-2.322;2022-12-10T22:37:29;-0.20;81.70
65408;DHT22;52017;51.230;-2.322;2022-12-10T22:41:11;-0.20;81.80
65408;DHT22;52017;51.230;-2.322;2022-12-10T22:44:53;-0.20;81.70
65408;DHT22;52017;51.230;-2.322;2022-12-10T22:48:36;-0.20;81.70
65408;DHT22;52017;51.230;-2.322;2022-12-10T22:52:19;-0.20;81.70
65408;DHT22;52017;51.230;-2.322;2022-12-10T22:56:04;-0.20;81.70
65408;DHT22;52017;51.230;-2.322;2022-12-10T22:59:46;-0.20;81.60
65408;DHT22;52017;51.230;-2.322;2022-12-10T23:03:28;-0.30;81.50
65408;DHT22;52017;51.230;-2.322;2022-12-10T23:07:10;-0.40;81.40
65408;DHT22;52017;51.230;-2.322;2022-12-10T23:10:54;-0.40;81.40
65408;DHT22;52017;51.230;-2.322;2022-12-10T23:14:36;-0.40;81.40
65408;DHT22;52017;51.230;-2.322;2022-12-10T23:18:19;-0.40;81.30
65408;DHT22;52017;51.230;-2.322;2022-12-10T23:22:01;-0.50;81.30
65408;DHT22;52017;51.230;-2.322;2022-12-10T23:25:43;-0.50;81.30
65408;DHT22;52017;51.230;-2.322;2022-12-10T23:29:28;-0.50;81.30
65408;DHT22;52017;51.230;-2.322;2022-12-10T23:33:10;-0.60;81.30
65408;DHT22;52017;51.230;-2.322;2022-12-10T23:36:54;-0.70;81.50
65408;DHT22;52017;51.230;-2.322;2022-12-10T23:40:39;-0.70;81.50
65408;DHT22;52017;51.230;-2.322;2022-12-10T23:44:22;-0.70;81.50
65408;DHT22;52017;51.230;-2.322;2022-12-10T23:48:05;-0.60;81.60
65408;DHT22;52017;51.230;-2.322;2022-12-10T23:51:47;-0.60;81.60
65408;DHT22;52017;51.230;-2.322;2022-12-10T23:55:29;-0.60;81.50
65408;DHT22;52017;51.230;-2.322;2022-12-10T23:59:12;-0.70;81.40
